createdAt,value
2023-05-14T00:01:24.221Z,80.80
2023-05-14T00:03:51.279Z,81.20
2023-05-14T00:06:18.338Z,81.00
2023-05-14T00:08:45.396Z,81.20
2023-05-14T00:11:14.706Z,80.90
2023-05-14T00:13:43.725Z,81.10
2023-05-14T00:16:12.909Z,81.00
2023-05-14T00:18:39.946Z,80.90
2023-05-14T00:21:09.026Z,80.90
2023-05-14T00:23:35.906Z,81.10
2023-05-14T00:26:05.326Z,81.50
2023-05-14T00:28:34.391Z,81.50
2023-05-14T00:31:03.775Z,81.10
2023-05-14T00:33:30.892Z,81.10
2023-05-14T00:36:02.566Z,81.10
2023-05-14T00:38:29.528Z,81.20
2023-05-14T00:40:58.562Z,81.00
2023-05-14T00:43:28.569Z,80.90
2023-05-14T00:45:57.607Z,81.10
2023-05-14T00:48:27.073Z,81.40
2023-05-14T00:50:56.483Z,81.10
2023-05-14T00:53:26.031Z,81.00
2023-05-14T00:55:53.191Z,80.80
2023-05-14T00:58:24.792Z,80.70
2023-05-14T01:00:52.083Z,80.40
2023-05-14T01:03:21.592Z,80.40
2023-05-14T01:06:31.385Z,80.60
2023-05-14T01:09:23.286Z,81.10
2023-05-14T01:12:00.193Z,81.10
2023-05-14T01:14:34.601Z,81.10
2023-05-14T01:17:07.512Z,81.40
2023-05-14T01:19:40.639Z,81.40
2023-05-14T01:22:07.852Z,81.20
2023-05-14T01:24:34.804Z,81.50
2023-05-14T01:27:17.234Z,81.20
2023-05-14T01:29:49.951Z,81.30
2023-05-14T01:32:20.627Z,81.50
2023-05-14T01:34:52.289Z,81.40
2023-05-14T01:37:21.777Z,81.40
2023-05-14T01:39:51.220Z,81.60
2023-05-14T01:42:23.244Z,81.80
2023-05-14T01:44:52.670Z,81.40
2023-05-14T01:47:22.246Z,81.80
2023-05-14T01:49:51.810Z,81.30
2023-05-14T01:52:24.228Z,81.50
2023-05-14T01:54:53.693Z,81.50
2023-05-14T01:57:21.529Z,81.40
2023-05-14T01:59:48.501Z,81.40
2023-05-14T02:02:15.435Z,81.20
2023-05-14T02:04:44.869Z,81.60
2023-05-14T02:07:11.803Z,81.70
2023-05-14T02:09:41.117Z,81.60
2023-05-14T02:12:09.083Z,81.40
2023-05-14T02:14:38.297Z,81.60
2023-05-14T02:17:05.549Z,81.80
2023-05-14T02:19:32.908Z,81.70
2023-05-14T02:22:02.528Z,81.60
2023-05-14T02:24:29.515Z,81.40
2023-05-14T02:26:56.427Z,81.10
2023-05-14T02:29:25.926Z,81.10
2023-05-14T02:31:55.223Z,81.20
2023-05-14T02:34:27.550Z,81.80
2023-05-14T02:36:55.593Z,81.30
2023-05-14T02:39:22.579Z,81.70
2023-05-14T02:41:51.604Z,81.80
2023-05-14T02:44:18.552Z,81.70
2023-05-14T02:46:50.172Z,81.80
2023-05-14T02:49:21.714Z,81.70
2023-05-14T02:51:51.062Z,81.70
2023-05-14T02:54:23.175Z,81.80
2023-05-14T02:56:50.082Z,81.70
2023-05-14T02:59:21.844Z,82.00
2023-05-14T03:01:51.246Z,82.50
2023-05-14T03:04:23.325Z,82.50
2023-05-14T03:06:50.355Z,82.50
2023-05-14T03:09:17.331Z,82.70
2023-05-14T03:11:44.293Z,82.90
2023-05-14T03:14:13.728Z,82.80
2023-05-14T03:16:42.890Z,82.90
2023-05-14T03:19:10.113Z,82.40
2023-05-14T03:21:37.210Z,82.50
2023-05-14T03:24:08.877Z,82.50
2023-05-14T03:26:35.833Z,82.60
2023-05-14T03:29:03.259Z,82.70
2023-05-14T03:31:37.542Z,83.00
2023-05-14T03:34:07.354Z,83.20
2023-05-14T03:36:37.843Z,83.20
2023-05-14T03:39:06.919Z,83.40
2023-05-14T03:41:37.528Z,83.70
2023-05-14T03:44:06.882Z,82.80
2023-05-14T03:46:34.392Z,82.80
2023-05-14T03:49:03.975Z,82.80
2023-05-14T03:51:31.904Z,83.00
2023-05-14T03:53:58.989Z,82.60
2023-05-14T03:56:28.086Z,82.40
2023-05-14T03:58:59.976Z,82.80
2023-05-14T04:01:26.901Z,82.90
2023-05-14T04:03:58.214Z,83.10
2023-05-14T04:06:29.920Z,83.00
2023-05-14T04:08:59.021Z,82.70
2023-05-14T04:11:25.949Z,83.10
2023-05-14T04:13:52.851Z,83.30
2023-05-14T04:16:20.013Z,83.20
2023-05-14T04:18:48.170Z,83.20
2023-05-14T04:21:17.654Z,83.50
2023-05-14T04:23:49.827Z,83.50
2023-05-14T04:26:16.811Z,83.80
2023-05-14T04:28:43.814Z,83.90
2023-05-14T04:31:10.786Z,83.30
2023-05-14T04:33:37.760Z,84.00
2023-05-14T04:36:11.359Z,84.10
2023-05-14T04:38:42.590Z,84.30
2023-05-14T04:41:12.004Z,84.00
2023-05-14T04:43:44.880Z,83.60
2023-05-14T04:46:16.813Z,83.70
2023-05-14T04:48:43.795Z,83.70
2023-05-14T04:51:10.752Z,83.60
2023-05-14T04:53:37.682Z,83.90
2023-05-14T04:56:06.725Z,83.90
2023-05-14T04:58:35.034Z,83.90
2023-05-14T05:01:07.748Z,83.50
2023-05-14T05:03:37.222Z,83.50
2023-05-14T05:06:04.397Z,83.50
2023-05-14T05:08:33.472Z,83.00
2023-05-14T05:11:07.565Z,83.20
2023-05-14T05:13:34.548Z,83.30
2023-05-14T05:16:03.709Z,82.80
2023-05-14T05:18:30.783Z,82.90
2023-05-14T05:20:59.867Z,83.00
2023-05-14T05:23:31.456Z,83.00
2023-05-14T05:26:03.384Z,83.40
2023-05-14T05:28:35.167Z,83.20
2023-05-14T05:31:08.076Z,82.90
2023-05-14T05:33:39.685Z,82.90
2023-05-14T05:36:06.793Z,83.00
2023-05-14T05:38:33.710Z,82.90
2023-05-14T05:41:00.675Z,82.30
2023-05-14T05:43:28.647Z,82.30
2023-05-14T05:45:55.631Z,82.40
2023-05-14T05:48:25.024Z,83.20
2023-05-14T05:50:54.441Z,82.70
2023-05-14T05:53:21.357Z,83.60
2023-05-14T05:55:52.877Z,83.70
2023-05-14T05:58:19.889Z,83.70
2023-05-14T06:00:51.535Z,83.80
2023-05-14T06:03:22.102Z,83.60
2023-05-14T06:05:52.688Z,83.10
2023-05-14T06:08:19.732Z,83.30
2023-05-14T06:10:48.813Z,83.60
2023-05-14T06:13:17.946Z,83.50
2023-05-14T06:15:48.063Z,83.40
2023-05-14T06:18:14.980Z,83.30
2023-05-14T06:20:44.072Z,83.50
2023-05-14T06:23:13.549Z,83.40
2023-05-14T06:25:43.566Z,83.20
2023-05-14T06:28:17.638Z,83.00
2023-05-14T06:30:44.577Z,83.10
2023-05-14T06:33:13.441Z,82.70
2023-05-14T06:35:40.467Z,82.90
2023-05-14T06:38:09.615Z,82.50
2023-05-14T06:40:41.754Z,82.40
2023-05-14T06:43:10.861Z,82.80
2023-05-14T06:45:40.330Z,82.30
2023-05-14T06:48:10.260Z,81.80
2023-05-14T06:50:42.322Z,81.70
2023-05-14T06:53:14.612Z,81.00
2023-05-14T06:55:45.082Z,81.20
2023-05-14T06:58:12.008Z,81.50
2023-05-14T07:00:38.968Z,82.00
2023-05-14T07:03:06.099Z,81.20
2023-05-14T07:05:35.773Z,81.10
2023-05-14T07:08:02.666Z,81.00
2023-05-14T07:10:30.954Z,79.90
2023-05-14T07:12:58.010Z,80.20
2023-05-14T07:15:24.911Z,80.80
2023-05-14T07:17:51.889Z,81.90
2023-05-14T07:20:21.214Z,82.30
2023-05-14T07:22:48.235Z,81.50
2023-05-14T07:25:17.363Z,80.40
2023-05-14T07:27:46.783Z,81.10
2023-05-14T07:30:18.503Z,80.90
2023-05-14T07:32:45.584Z,80.20
2023-05-14T07:35:12.535Z,79.00
2023-05-14T07:37:42.931Z,79.60
2023-05-14T07:40:10.156Z,79.30
2023-05-14T07:42:37.619Z,79.00
2023-05-14T07:45:10.551Z,78.80
2023-05-14T07:47:37.631Z,78.70
2023-05-14T07:50:04.835Z,78.40
2023-05-14T07:52:34.315Z,78.10
2023-05-14T07:55:06.910Z,78.00
2023-05-14T07:57:35.977Z,77.00
2023-05-14T08:00:03.258Z,76.80
2023-05-14T08:02:39.400Z,77.60
2023-05-14T08:05:09.127Z,77.30
2023-05-14T08:07:36.027Z,77.40
2023-05-14T08:10:03.021Z,76.50
2023-05-14T08:12:32.694Z,76.70
2023-05-14T08:15:01.752Z,76.80
2023-05-14T08:17:33.512Z,77.30
2023-05-14T08:20:03.300Z,76.20
2023-05-14T08:22:32.422Z,76.20
2023-05-14T08:25:01.007Z,75.90
2023-05-14T08:27:28.221Z,75.50
2023-05-14T08:29:55.159Z,75.50
2023-05-14T08:32:23.691Z,74.70
2023-05-14T08:34:55.837Z,73.70
2023-05-14T08:37:25.123Z,74.60
2023-05-14T08:39:52.064Z,73.70
2023-05-14T08:42:20.861Z,74.40
2023-05-14T08:44:55.778Z,72.60
2023-05-14T08:47:25.421Z,71.00
2023-05-14T08:50:01.630Z,71.10
2023-05-14T08:52:31.654Z,71.40
2023-05-14T08:55:07.941Z,70.20
2023-05-14T08:57:35.331Z,71.60
2023-05-14T09:00:08.260Z,70.60
2023-05-14T09:02:35.997Z,70.70
2023-05-14T09:05:10.733Z,69.90
2023-05-14T09:07:40.372Z,68.90
2023-05-14T09:10:10.516Z,70.80
2023-05-14T09:12:37.595Z,69.80
2023-05-14T09:15:05.075Z,67.60
2023-05-14T09:17:34.670Z,69.00
2023-05-14T09:20:07.076Z,69.40
2023-05-14T09:22:36.759Z,68.60
2023-05-14T09:25:12.060Z,68.60
2023-05-14T09:27:41.164Z,70.90
2023-05-14T09:30:14.711Z,70.40
2023-05-14T09:32:45.913Z,71.80
2023-05-14T09:35:21.033Z,71.20
2023-05-14T09:37:55.705Z,70.80
2023-05-14T09:40:24.116Z,70.20
2023-05-14T09:42:54.125Z,71.10
2023-05-14T09:45:25.746Z,71.10
2023-05-14T09:48:00.054Z,69.90
2023-05-14T09:50:27.266Z,70.90
2023-05-14T09:52:56.176Z,70.20
2023-05-14T09:55:25.580Z,69.70
2023-05-14T09:57:52.496Z,69.20
2023-05-14T10:00:26.292Z,69.70
2023-05-14T10:02:55.487Z,70.80
2023-05-14T10:05:26.842Z,70.30
2023-05-14T10:07:54.543Z,68.70
2023-05-14T10:10:22.030Z,69.90
2023-05-14T10:13:12.712Z,69.70
2023-05-14T10:15:43.204Z,69.80
2023-05-14T10:18:13.560Z,68.50
2023-05-14T10:20:41.146Z,69.70
2023-05-14T10:23:08.171Z,67.50
2023-05-14T10:25:38.017Z,69.10
2023-05-14T10:28:06.072Z,69.10
2023-05-14T10:30:33.114Z,68.90
2023-05-14T10:33:13.710Z,68.60
2023-05-14T10:36:06.290Z,68.70
2023-05-14T10:38:34.683Z,66.70
2023-05-14T10:41:05.383Z,67.80
2023-05-14T10:43:43.459Z,70.50
2023-05-14T10:46:16.508Z,68.40
2023-05-14T10:48:45.721Z,68.80
2023-05-14T10:51:17.621Z,67.70
2023-05-14T10:53:44.620Z,67.60
2023-05-14T10:56:14.393Z,67.90
2023-05-14T10:58:44.870Z,68.10
2023-05-14T11:01:15.064Z,67.20
2023-05-14T11:03:50.279Z,64.90
2023-05-14T11:06:17.213Z,66.20
2023-05-14T11:08:46.898Z,66.80
2023-05-14T11:11:13.893Z,66.10
2023-05-14T11:13:41.556Z,66.30
2023-05-14T11:16:23.361Z,66.20
2023-05-14T11:19:00.836Z,67.00
2023-05-14T11:21:30.279Z,66.10
2023-05-14T11:24:03.779Z,66.00
2023-05-14T11:26:31.751Z,64.80
2023-05-14T11:29:03.022Z,66.20
2023-05-14T11:31:34.911Z,66.10
2023-05-14T11:34:05.957Z,65.70
2023-05-14T11:36:36.871Z,66.20
2023-05-14T11:39:03.857Z,66.20
2023-05-14T11:41:32.854Z,66.00
2023-05-14T11:44:00.376Z,64.90
2023-05-14T11:46:30.976Z,66.10
2023-05-14T11:49:00.411Z,66.00
2023-05-14T11:51:29.816Z,65.80
2023-05-14T11:53:59.378Z,64.10
2023-05-14T11:56:26.353Z,64.10
2023-05-14T11:58:57.154Z,62.30
2023-05-14T12:01:30.172Z,64.50
2023-05-14T12:04:01.893Z,65.20
2023-05-14T12:06:36.580Z,63.70
2023-05-14T12:09:05.541Z,64.10
2023-05-14T12:11:38.277Z,65.50
2023-05-14T12:14:18.982Z,62.80
2023-05-14T12:16:46.817Z,62.40
2023-05-14T12:19:18.632Z,63.40
2023-05-14T12:21:48.384Z,63.00
2023-05-14T12:24:17.753Z,61.70
2023-05-14T12:26:47.595Z,63.70
2023-05-14T12:29:15.093Z,63.20
2023-05-14T12:31:49.058Z,63.70
2023-05-14T12:34:16.591Z,63.50
2023-05-14T12:36:46.575Z,61.10
2023-05-14T12:39:18.214Z,62.50
2023-05-14T12:41:45.246Z,61.00
2023-05-14T12:44:14.473Z,61.80
2023-05-14T12:46:41.633Z,61.20
2023-05-14T12:49:08.635Z,59.60
2023-05-14T12:51:35.528Z,59.70
2023-05-14T12:54:02.524Z,59.90
2023-05-14T12:56:31.013Z,59.20
2023-05-14T12:58:57.966Z,61.30
2023-05-14T13:01:24.998Z,60.20
2023-05-14T13:03:52.034Z,59.30
2023-05-14T13:06:25.630Z,59.80
2023-05-14T13:08:56.815Z,58.30
2023-05-14T13:11:27.158Z,57.70
2023-05-14T13:13:56.307Z,60.10
2023-05-14T13:16:23.259Z,57.10
2023-05-14T13:18:52.407Z,56.90
2023-05-14T13:21:19.489Z,56.70
2023-05-14T13:23:50.144Z,57.80
2023-05-14T13:26:17.111Z,57.20
2023-05-14T13:28:46.366Z,56.60
2023-05-14T13:31:16.023Z,55.70
2023-05-14T13:33:43.575Z,53.40
2023-05-14T13:36:13.504Z,52.20
2023-05-14T13:38:43.556Z,55.70
2023-05-14T13:41:10.575Z,52.50
2023-05-14T13:43:42.699Z,52.80
2023-05-14T13:46:09.770Z,51.20
2023-05-14T13:48:42.067Z,52.20
2023-05-14T13:51:11.304Z,52.70
2023-05-14T13:53:40.679Z,51.30
2023-05-14T13:56:10.169Z,49.80
2023-05-14T13:58:37.103Z,48.20
2023-05-14T14:01:06.307Z,50.20
2023-05-14T14:03:35.436Z,49.50
2023-05-14T14:06:04.918Z,50.60
2023-05-14T14:08:31.864Z,50.30
2023-05-14T14:10:58.779Z,50.00
2023-05-14T14:13:32.573Z,51.00
2023-05-14T14:15:59.580Z,47.80
2023-05-14T14:18:28.717Z,49.20
2023-05-14T14:20:58.747Z,48.20
2023-05-14T14:23:27.945Z,49.30
2023-05-14T14:25:54.857Z,48.50
2023-05-14T14:28:24.028Z,49.30
2023-05-14T14:30:50.940Z,51.90
2023-05-14T14:33:17.878Z,47.60
2023-05-14T14:35:44.855Z,47.80
2023-05-14T14:38:14.668Z,47.50
2023-05-14T14:40:41.639Z,49.40
2023-05-14T14:43:10.854Z,52.50
2023-05-14T14:45:37.842Z,50.70
2023-05-14T14:48:26.260Z,50.90
2023-05-14T14:50:55.909Z,49.00
2023-05-14T14:53:27.665Z,49.80
2023-05-14T14:55:57.056Z,50.00
2023-05-14T14:58:27.446Z,51.30
2023-05-14T15:00:57.548Z,50.50
2023-05-14T15:03:25.062Z,49.30
2023-05-14T15:05:53.600Z,51.20
2023-05-14T15:08:24.108Z,51.10
2023-05-14T15:10:53.684Z,50.30
2023-05-14T15:13:23.254Z,51.40
2023-05-14T15:15:52.841Z,50.70
2023-05-14T15:18:22.591Z,50.20
2023-05-14T15:20:52.196Z,49.20
2023-05-14T15:23:19.232Z,50.10
2023-05-14T15:25:49.506Z,48.30
2023-05-14T15:28:19.054Z,48.80
2023-05-14T15:30:47.724Z,50.50
2023-05-14T15:33:19.108Z,49.50
2023-05-14T15:35:46.293Z,49.20
2023-05-14T15:38:13.268Z,50.40
2023-05-14T15:40:40.685Z,51.70
2023-05-14T15:43:07.684Z,50.20
2023-05-14T15:45:34.586Z,48.60
2023-05-14T15:48:03.938Z,49.20
2023-05-14T15:50:30.942Z,48.70
2023-05-14T15:52:57.906Z,47.60
2023-05-14T15:55:27.329Z,49.70
2023-05-14T15:57:54.216Z,49.70
2023-05-14T16:00:25.321Z,49.70
2023-05-14T16:02:52.894Z,49.10
2023-05-14T16:05:22.129Z,49.30
2023-05-14T16:07:49.080Z,50.00
2023-05-14T16:10:16.037Z,48.30
2023-05-14T16:12:42.962Z,49.40
2023-05-14T16:15:10.323Z,49.80
2023-05-14T16:17:37.419Z,50.00
2023-05-14T16:20:07.949Z,50.40
2023-05-14T16:22:36.209Z,50.70
2023-05-14T16:25:08.214Z,50.50
2023-05-14T16:27:35.146Z,50.40
2023-05-14T16:30:02.131Z,51.90
2023-05-14T16:32:31.575Z,50.00
2023-05-14T16:35:03.248Z,51.30
2023-05-14T16:37:32.597Z,50.40
2023-05-14T16:40:01.672Z,51.20
2023-05-14T16:42:28.714Z,50.70
2023-05-14T16:45:00.421Z,50.30
2023-05-14T16:47:29.662Z,50.00
2023-05-14T16:49:56.587Z,51.50
2023-05-14T16:52:23.523Z,50.70
2023-05-14T16:54:52.547Z,51.30
2023-05-14T16:57:19.486Z,53.30
2023-05-14T16:59:48.552Z,50.70
2023-05-14T17:02:18.110Z,54.20
2023-05-14T17:04:47.307Z,51.50
2023-05-14T17:07:16.649Z,51.00
2023-05-14T17:09:43.630Z,49.50
2023-05-14T17:12:14.041Z,50.70
2023-05-14T17:14:43.084Z,52.50
2023-05-14T17:17:12.400Z,50.90
2023-05-14T17:19:39.325Z,50.20
2023-05-14T17:22:07.299Z,51.50
2023-05-14T17:24:38.986Z,52.00
2023-05-14T17:27:08.201Z,52.40
2023-05-14T17:29:39.833Z,53.70
2023-05-14T17:32:09.306Z,53.90
2023-05-14T17:34:40.908Z,54.90
2023-05-14T17:37:10.863Z,55.70
2023-05-14T17:39:37.787Z,54.90
2023-05-14T17:42:05.089Z,54.60
2023-05-14T17:44:32.059Z,57.10
2023-05-14T17:47:00.376Z,58.20
2023-05-14T17:49:27.428Z,59.00
2023-05-14T17:51:54.404Z,57.80
2023-05-14T17:54:23.593Z,59.60
2023-05-14T17:56:51.087Z,62.20
2023-05-14T17:59:18.012Z,61.90
2023-05-14T18:01:45.015Z,59.30
2023-05-14T18:04:16.568Z,58.10
2023-05-14T18:06:45.745Z,57.30
2023-05-14T18:09:12.772Z,57.10
2023-05-14T18:11:41.953Z,57.30
2023-05-14T18:14:13.674Z,57.60
2023-05-14T18:16:42.784Z,59.90
2023-05-14T18:19:12.373Z,61.40
2023-05-14T18:21:39.385Z,62.10
2023-05-14T18:24:08.853Z,63.00
2023-05-14T18:26:35.811Z,63.70
2023-05-14T18:29:07.440Z,64.30
2023-05-14T18:31:34.564Z,65.00
2023-05-14T18:34:04.184Z,65.60
2023-05-14T18:36:33.252Z,66.40
2023-05-14T18:39:00.289Z,66.50
2023-05-14T18:41:34.511Z,66.80
2023-05-14T18:44:02.362Z,67.50
2023-05-14T18:46:33.672Z,68.00
2023-05-14T18:49:00.613Z,67.90
2023-05-14T18:51:32.439Z,68.40
2023-05-14T18:54:01.905Z,68.10
2023-05-14T18:56:28.850Z,68.50
2023-05-14T18:58:58.299Z,68.30
2023-05-14T19:01:30.052Z,68.70
2023-05-14T19:04:03.813Z,69.50
2023-05-14T19:06:32.743Z,69.00
2023-05-14T19:08:59.732Z,70.30
2023-05-14T19:11:26.829Z,69.50
2023-05-14T19:13:53.761Z,70.30
2023-05-14T19:16:28.054Z,70.30
2023-05-14T19:18:55.097Z,70.70
2023-05-14T19:21:26.538Z,70.60
2023-05-14T19:23:53.476Z,70.90
2023-05-14T19:26:21.610Z,71.80
2023-05-14T19:28:58.393Z,71.50
2023-05-14T19:31:30.038Z,72.30
2023-05-14T19:34:01.553Z,72.30
2023-05-14T19:36:34.006Z,73.00
2023-05-14T19:39:03.589Z,73.20
2023-05-14T19:41:35.243Z,73.80
2023-05-14T19:44:02.171Z,73.50
2023-05-14T19:46:29.174Z,74.10
2023-05-14T19:48:58.362Z,73.70
2023-05-14T19:51:30.589Z,75.00
2023-05-14T19:53:57.568Z,75.20
2023-05-14T19:56:27.411Z,74.60
2023-05-14T19:58:56.648Z,75.60
2023-05-14T20:01:26.854Z,75.60
2023-05-14T20:03:56.339Z,75.10
2023-05-14T20:06:25.762Z,75.30
2023-05-14T20:09:00.335Z,76.00
2023-05-14T20:11:29.598Z,76.80
2023-05-14T20:13:56.581Z,77.20
2023-05-14T20:16:26.126Z,76.30
2023-05-14T20:18:57.633Z,76.20
2023-05-14T20:21:24.650Z,76.20
2023-05-14T20:23:51.660Z,76.00
2023-05-14T20:26:26.534Z,75.90
2023-05-14T20:28:55.637Z,75.90
2023-05-14T20:31:22.681Z,76.30
2023-05-14T20:33:49.668Z,76.40
2023-05-14T20:36:17.001Z,77.20
2023-05-14T20:38:43.970Z,76.30
2023-05-14T20:41:15.883Z,75.80
2023-05-14T20:43:45.211Z,76.00
2023-05-14T20:46:15.151Z,76.20
2023-05-14T20:48:44.226Z,76.70
2023-05-14T20:51:11.163Z,76.20
2023-05-14T20:53:39.171Z,76.10
2023-05-14T20:56:06.775Z,76.10
2023-05-14T20:58:37.098Z,75.50
2023-05-14T21:01:04.885Z,75.70
2023-05-14T21:03:37.086Z,75.20
2023-05-14T21:06:06.606Z,75.20
2023-05-14T21:08:40.356Z,74.70
2023-05-14T21:11:07.750Z,74.60
2023-05-14T21:13:34.713Z,74.90
2023-05-14T21:16:01.991Z,74.30
2023-05-14T21:18:32.465Z,74.20
2023-05-14T21:20:59.438Z,74.80
2023-05-14T21:23:31.211Z,73.70
2023-05-14T21:26:00.296Z,74.70
2023-05-14T21:28:32.567Z,73.10
2023-05-14T21:30:59.504Z,72.80
2023-05-14T21:33:26.488Z,73.30
2023-05-14T21:35:53.479Z,72.30
2023-05-14T21:38:23.107Z,72.30
2023-05-14T21:40:52.258Z,72.60
2023-05-14T21:43:19.421Z,72.50
2023-05-14T21:45:49.104Z,71.50
2023-05-14T21:48:18.339Z,72.60
2023-05-14T21:50:45.271Z,72.40
2023-05-14T21:53:12.509Z,72.10
2023-05-14T21:55:41.748Z,71.70
2023-05-14T21:58:08.689Z,71.80
2023-05-14T22:00:37.869Z,71.10
2023-05-14T22:03:09.752Z,71.10
2023-05-14T22:05:38.953Z,71.20
2023-05-14T22:08:08.361Z,72.20
2023-05-14T22:10:37.558Z,71.40
2023-05-14T22:13:04.559Z,72.00
2023-05-14T22:15:33.705Z,71.60
2023-05-14T22:18:00.686Z,71.10
2023-05-14T22:20:27.646Z,70.40
2023-05-14T22:23:01.279Z,71.20
2023-05-14T22:25:30.296Z,71.60
2023-05-14T22:28:02.520Z,71.40
2023-05-14T22:30:29.474Z,70.80
2023-05-14T22:32:56.413Z,71.10
2023-05-14T22:35:23.614Z,71.10
2023-05-14T22:37:55.487Z,70.80
2023-05-14T22:40:27.085Z,70.60
2023-05-14T22:43:00.936Z,70.60
2023-05-14T22:45:35.309Z,71.70
2023-05-14T22:48:02.457Z,71.00
2023-05-14T22:50:31.604Z,71.00
2023-05-14T22:53:00.794Z,72.00
2023-05-14T22:55:28.005Z,71.00
2023-05-14T22:57:57.248Z,70.90
2023-05-14T23:00:30.859Z,70.50
2023-05-14T23:03:00.321Z,71.10
2023-05-14T23:05:27.425Z,70.20
2023-05-14T23:07:56.608Z,70.50
2023-05-14T23:10:23.490Z,67.70
2023-05-14T23:12:50.460Z,69.50
2023-05-14T23:15:17.436Z,67.80
2023-05-14T23:17:44.565Z,67.30
2023-05-14T23:20:14.948Z,67.80
2023-05-14T23:22:44.127Z,68.80
2023-05-14T23:25:11.067Z,67.00
2023-05-14T23:27:38.019Z,66.50
2023-05-14T23:30:05.376Z,66.40
2023-05-14T23:32:32.297Z,66.80
2023-05-14T23:35:01.431Z,66.80
2023-05-14T23:37:30.610Z,66.20
2023-05-14T23:40:02.095Z,66.20
2023-05-14T23:42:31.499Z,66.80
2023-05-14T23:44:58.399Z,68.80
2023-05-14T23:47:27.901Z,68.00
2023-05-14T23:49:57.871Z,67.40
2023-05-14T23:52:27.196Z,67.90
2023-05-14T23:54:54.225Z,71.00
2023-05-14T23:57:21.212Z,69.80
2023-05-14T23:59:50.658Z,70.10
